ADDS METAR Data INFO
IDs: Format: Raw Decoded Include TAF

Data at: 1515 UTC 22 Jun 2018

KETN 221455Z AUTO 23012KT 10SM CLR 30/19 A2995 RMK AO2 T03000192
KETN 221435Z AUTO 22009KT 10SM CLR 29/20 A2995 RMK AO2 T02930198
KETN 221415Z AUTO 22010KT 10SM CLR 29/20 A2995 RMK AO2 T02870202
KETN 221355Z AUTO 23012KT 10SM CLR 28/20 A2995 RMK AO2 LTG DSNT NE T02770204
KETN 221335Z AUTO 22011G20KT 10SM CLR 27/21 A2993 RMK AO2 T02710206
KETN 221315Z AUTO 21013G16KT 10SM CLR 27/21 A2993 RMK AO2 T02670206
KETN 221255Z AUTO 22010KT 10SM CLR 26/20 A2991 RMK AO2 T02590205
KETN 221235Z AUTO 21007KT 10SM CLR 25/20 A2991 RMK AO2 T02510203
KETN 221215Z AUTO 21007KT 10SM CLR 25/20 A2991 RMK AO2 T02460200
KETN 221155Z AUTO 21006KT 10SM CLR 24/20 A2990 RMK AO2 T02430198 10262 20229
KETN 221135Z AUTO 21004KT 10SM CLR 24/20 A2990 RMK AO2 T02420198
KETN 221115Z AUTO 20006KT 10SM CLR 24/20 A2989 RMK AO2 T02430196
KETN 221055Z AUTO 20006KT 10SM CLR 24/20 A2989 RMK AO2 T02430195
KETN 221035Z AUTO 20007KT 10SM CLR 24/19 A2989 RMK AO2 T02430195
KETN 221015Z AUTO 20006KT 10SM CLR 25/19 A2989 RMK AO2 T02460194
KETN 220955Z AUTO 20006KT 10SM CLR 25/19 A2988 RMK AO2 T02480194
KETN 220935Z AUTO 19007KT 10SM CLR 25/19 A2988 RMK AO2 T02490193
KETN 220915Z AUTO 20006KT 10SM CLR 25/19 A2987 RMK AO2 T02510193
KETN 220855Z AUTO 20006KT 10SM CLR 25/19 A2987 RMK AO2 T02550193
KETN 220835Z AUTO 19008KT 10SM CLR 26/19 A2987 RMK AO2 T02570193
KETN 220815Z AUTO 19007KT 10SM CLR 26/19 A2987 RMK AO2 T02600194
KETN 220755Z AUTO 19006KT 10SM CLR 26/19 A2987 RMK AO2 T02600194
KETN 220735Z AUTO 20005KT 10SM CLR 26/19 A2987 RMK AO2 T02560193
KETN 220715Z AUTO 19006KT 10SM CLR 26/19 A2987 RMK AO2 T02560191
KETN 220655Z AUTO 19004KT 10SM CLR 26/19 A2988 RMK AO2 T02570189
KETN 220635Z AUTO 19006KT 10SM CLR 26/19 A2987 RMK AO2 T02570186
KETN 220615Z AUTO 18003KT 10SM CLR 24/18 A2989 RMK AO2 T02420185
KETN 220555Z AUTO 16004KT 10SM CLR 23/19 A2989 RMK AO2 T02280189 10346 20221
KETN 220535Z AUTO 00000KT 10SM CLR 23/18 A2990 RMK AO2 T02280183
KETN 220515Z AUTO 00000KT 10SM CLR 22/19 A2990 RMK AO2 T02240186
KETN 220455Z AUTO 00000KT 10SM CLR 23/18 A2990 RMK AO2 T02320183
KETN 220435Z AUTO 00000KT 10SM CLR 23/19 A2990 RMK AO2 T02290188
KETN 220415Z AUTO 00000KT 10SM CLR 23/19 A2990 RMK AO2 T02350186
KETN 220355Z AUTO 00000KT 10SM CLR 24/19 A2990 RMK AO2 T02420189
KETN 220335Z AUTO 00000KT 10SM CLR 24/20 A2990 RMK AO2 T02390195
KETN 220315Z AUTO 00000KT 10SM CLR 25/19 A2990 RMK AO2 T02460190
KETN 220255Z AUTO 00000KT 10SM CLR 25/20 A2989 RMK AO2 T02500198
KETN 220235Z AUTO 00000KT 10SM CLR 26/19 A2989 RMK AO2 T02610189
KETN 220215Z AUTO 00000KT 10SM CLR 27/19 A2989 RMK AO2 T02660192
KETN 220155Z AUTO 00000KT 10SM CLR 28/20 A2988 RMK AO2 T02770201
KETN 220135Z AUTO 00000KT 10SM CLR 30/20 A2988 RMK AO2 T02980204
KETN 220115Z AUTO 00000KT 10SM CLR 32/20 A2988 RMK AO2 T03180204
KETN 220055Z AUTO 00000KT 10SM CLR 33/20 A2987 RMK AO2 T03320198
KETN 220035Z AUTO 22003KT 10SM CLR 33/17 A2987 RMK AO2 T03340169
KETN 220015Z AUTO 19005KT 10SM CLR 34/17 A2987 RMK AO2 T03360171
KETN 212355Z AUTO 20004KT 10SM CLR 35/16 A2987 RMK AO2 T03530158 10362 20326 403620198
KETN 212335Z AUTO 00000KT 10SM CLR 35/15 A2988 RMK AO2 T03520155
KETN 212315Z AUTO 00000KT 10SM CLR 36/16 A2988 RMK AO2 T03560156
KETN 212255Z AUTO 14006KT 10SM CLR 36/16 A2989 RMK AO2 T03580158
KETN 212235Z AUTO 18006KT 10SM CLR 36/17 A2989 RMK AO2 T03570168
KETN 212215Z AUTO 30004KT 10SM CLR 35/16 A2990 RMK AO2 T03540164
KETN 212155Z AUTO 20004KT 10SM SCT090 35/17 A2990 RMK AO2
KETN 212135Z AUTO 06003KT 10SM SCT090 SCT110 35/17 A2991 RMK AO2 T03470173
KETN 212115Z AUTO 06006KT 10SM BKN080 BKN090 OVC110 34/18 A2991 RMK AO2 T03430178
KETN 212055Z AUTO 00000KT 10SM OVC065 35/17 A2992 RMK AO2 T03510172
KETN 212035Z AUTO 19006KT 10SM OVC065 35/18 A2992 RMK AO2 T03550176
KETN 212015Z AUTO 28006KT 10SM BKN065 BKN080 35/18 A2993 RMK AO2 T03530181
KETN 211955Z AUTO 36003KT 10SM SCT065 SCT075 34/18 A2993 RMK AO2 T03440180
KETN 211935Z AUTO 11004KT 10SM BKN065 34/18 A2994 RMK AO2 T03390184
KETN 211915Z AUTO 29003KT 10SM CLR 34/18 A2994 RMK AO2 T03440183
KETN 211855Z AUTO 16006KT 10SM SCT060 34/19 A2995 RMK AO2 T03420185
KETN 211835Z AUTO 33004KT 10SM SCT060 33/18 A2996 RMK AO2 T03320177
KETN 211815Z AUTO 10004KT 10SM BKN060 33/19 A2996 RMK AO2 T03290187
KETN 211755Z AUTO 12005KT 10SM SCT060 32/18 A2997 RMK AO2 T03240185 10333 20209
KETN 211735Z AUTO 14008KT 090V170 10SM CLR 33/19 A2997 RMK AO2 T03280195
KETN 211715Z AUTO 02007KT 10SM CLR 32/19 A2998 RMK AO2 T03150192
KETN 211655Z AUTO 00000KT 10SM CLR 31/20 A2998 RMK AO2 T03110197
KETN 211635Z AUTO 06006KT 10SM CLR 31/20 A2999 RMK AO2 T03060198
KETN 211615Z AUTO 04004KT 10SM CLR 31/20 A2999 RMK AO2 T03080202
KETN 211555Z AUTO 01003KT 10SM CLR 30/21 A2999 RMK AO2 T02990205
KETN 211535Z AUTO 00000KT 10SM CLR 29/21 A2999 RMK AO2 T02950207
KETN 211515Z AUTO 35005KT 10SM CLR 28/21 A3000 RMK AO2 T02850211
KETN 211455Z AUTO 32004KT 10SM CLR 28/21 A3000 RMK AO2 T02780215
KETN 211435Z AUTO 00000KT 10SM CLR 27/22 A3000 RMK AO2 T02690216
KETN 211355Z AUTO 30003KT 10SM CLR 25/22 A2999 RMK AO2 T02500216
KETN 211335Z AUTO 19003KT 10SM CLR 24/22 A2999 RMK AO2 T02430215
KETN 211315Z AUTO 00000KT 10SM CLR 23/21 A2999 RMK AO2 T02340214
KETN 211255Z AUTO 00000KT 10SM CLR 23/21 A2999 RMK AO2 T02260212
KETN 211235Z AUTO 00000KT 10SM CLR 22/21 A2998 RMK AO2 T02200210
KETN 211215Z AUTO 00000KT 10SM CLR 21/20 A2998 RMK AO2 T02100204
KETN 211155Z AUTO 00000KT 10SM CLR 21/20 A2998 RMK AO2 T02080203 10242 20198 70036
KETN 211135Z AUTO 15003KT 10SM CLR 20/20 A2997 RMK AO2 T02000195
KETN 211115Z AUTO 00000KT 10SM CLR 20/20 A2995 RMK AO2 T02000197
KETN 211055Z AUTO 00000KT 10SM CLR 20/20 A2995 RMK AO2 T02040199
KETN 211035Z AUTO 00000KT 10SM CLR 21/20 A2994 RMK AO2 T02090204
KETN 211015Z AUTO 00000KT 10SM CLR 22/21 A2994 RMK AO2 T02170209
KETN 210955Z AUTO 22003KT 10SM CLR 22/21 A2994 RMK AO2 T02180210
KETN 210935Z AUTO 16004KT 10SM CLR 22/21 A2994 RMK AO2 T02210210
KETN 210915Z AUTO 14003KT 10SM CLR 22/21 A2994 RMK AO2 T02200210
KETN 210855Z AUTO 12003KT 10SM CLR 22/21 A2994 RMK AO2 T02240211
KETN 210835Z AUTO 11005KT 10SM CLR 23/21 A2994 RMK AO2 T02260211
KETN 210815Z AUTO 10004KT 10SM CLR 23/21 A2994 RMK AO2 T02260211
KETN 210755Z AUTO 10003KT 10SM CLR 23/21 A2993 RMK AO2 T02280212
KETN 210735Z AUTO 08003KT 10SM CLR 23/21 A2993 RMK AO2 T02320213
KETN 210715Z AUTO 08006KT 10SM SCT021 24/21 A2993 RMK AO2 T02350213
KETN 210655Z AUTO 07006KT 10SM CLR 23/21 A2993 RMK AO2 T02330212
KETN 210635Z AUTO 00000KT 10SM SCT080 23/21 A2993 RMK AO2 T02350212
KETN 210615Z AUTO 16003KT 10SM SCT080 24/21 A2993 RMK AO2 T02410213
KETN 210555Z AUTO 00000KT 10SM CLR 24/21 A2994 RMK AO2 T02400213 10325 20240
KETN 210535Z AUTO 17004KT 10SM CLR 25/21 A2993 RMK AO2 T02480213
KETN 210515Z AUTO 14005KT 10SM CLR 25/21 A2993 RMK AO2 LTG DSNT NE T02500211
KETN 210455Z AUTO 14004KT 10SM CLR 25/21 A2993 RMK AO2 T02530211
KETN 210435Z AUTO 15005KT 10SM CLR 26/21 A2993 RMK AO2 T02560210
KETN 210415Z AUTO 15006KT 10SM CLR 26/21 A2993 RMK AO2 LTG DSNT SE T02600209
KETN 210355Z AUTO 15005KT 10SM CLR 26/21 A2992 RMK AO2 T02640209
KETN 210335Z AUTO 15005KT 10SM CLR 27/21 A2991 RMK AO2 T02680209